createdAt,value
2022-08-23T00:00:52.469Z,50.882977
2022-08-23T00:01:50.465Z,50.882977
2022-08-23T00:02:50.473Z,50.882977
2022-08-23T00:03:50.432Z,50.882977
2022-08-23T00:04:56.443Z,50.882977
2022-08-23T00:05:51.403Z,50.882977
2022-08-23T00:06:50.408Z,50.882977
2022-08-23T00:07:50.421Z,50.882977
2022-08-23T00:08:50.405Z,50.882977
2022-08-23T00:09:50.394Z,50.882977
2022-08-23T00:10:50.350Z,50.882977
2022-08-23T00:11:50.366Z,50.882977
2022-08-23T00:12:50.357Z,50.882977
2022-08-23T00:13:50.331Z,50.882977
2022-08-23T00:14:50.316Z,50.882977
2022-08-23T00:15:50.363Z,50.882977
2022-08-23T00:16:50.326Z,50.882977
2022-08-23T00:17:50.296Z,50.882977
2022-08-23T00:18:50.320Z,50.882977
2022-08-23T00:19:50.270Z,50.882977
2022-08-23T00:20:50.298Z,50.882977
2022-08-23T00:21:50.269Z,50.882977
2022-08-23T00:22:50.259Z,50.882977
2022-08-23T00:23:50.232Z,50.882977
2022-08-23T00:24:50.225Z,50.882977
2022-08-23T00:25:50.221Z,50.882977
2022-08-23T00:26:50.220Z,50.882977
2022-08-23T00:27:50.255Z,50.875996
2022-08-23T00:28:50.220Z,50.875996
2022-08-23T00:29:50.167Z,50.876011
2022-08-23T00:30:50.170Z,50.876011
2022-08-23T00:31:50.186Z,50.875507
2022-08-23T00:32:50.207Z,50.875744
2022-08-23T00:33:50.188Z,50.875755
2022-08-23T00:34:50.119Z,50.875778
2022-08-23T00:35:50.121Z,50.875874
2022-08-23T00:36:50.111Z,50.875877
2022-08-23T00:38:05.890Z,50.875793
2022-08-23T00:38:51.104Z,50.875694
2022-08-23T00:39:50.150Z,50.875626
2022-08-23T00:40:50.064Z,50.875462
2022-08-23T00:41:50.098Z,50.875534
2022-08-23T00:42:50.024Z,50.875553
2022-08-23T00:43:50.056Z,50.875378
2022-08-23T00:44:50.035Z,50.875412
2022-08-23T00:45:50.015Z,50.875324
2022-08-23T00:46:50.011Z,50.875404
2022-08-23T00:47:49.986Z,50.875332
2022-08-23T00:48:50.016Z,50.875336
2022-08-23T00:49:49.964Z,50.875446
2022-08-23T00:50:49.975Z,50.875248
2022-08-23T00:51:52.424Z,50.875301
2022-08-23T00:52:49.933Z,50.875336
2022-08-23T00:53:49.942Z,50.875332
2022-08-23T00:54:49.944Z,50.875298
2022-08-23T00:55:49.904Z,50.875229
2022-08-23T00:56:49.913Z,50.875118
2022-08-23T00:57:49.908Z,50.875530
2022-08-23T00:58:49.894Z,50.875641
2022-08-23T00:59:49.869Z,50.875278
2022-08-23T01:00:49.872Z,50.875427
2022-08-23T01:01:49.933Z,50.875427
2022-08-23T01:02:49.857Z,50.875214
2022-08-23T01:03:57.142Z,50.875362
2022-08-23T01:04:50.822Z,50.875301
2022-08-23T01:05:49.817Z,50.875351
2022-08-23T01:06:49.818Z,50.875301
2022-08-23T01:07:49.821Z,50.875252
2022-08-23T01:08:49.826Z,50.875412
2022-08-23T01:09:49.771Z,50.875233
2022-08-23T01:10:49.773Z,50.875233
2022-08-23T01:11:49.773Z,50.875233
2022-08-23T01:12:49.806Z,50.875233
2022-08-23T01:13:49.739Z,50.874981
2022-08-23T01:14:49.731Z,50.874981
2022-08-23T01:15:55.375Z,50.874981
2022-08-23T01:16:49.714Z,50.874981
2022-08-23T01:17:49.725Z,50.874981
2022-08-23T01:18:49.717Z,50.874981
2022-08-23T01:19:49.687Z,50.874981
2022-08-23T01:20:49.672Z,50.874981
2022-08-23T01:21:49.674Z,50.874981
2022-08-23T01:22:49.671Z,50.874981
2022-08-23T01:23:49.644Z,50.874981
2022-08-23T01:25:07.815Z,50.874981
2022-08-23T01:25:50.617Z,50.874981
2022-08-23T01:26:49.632Z,50.874981
2022-08-23T01:27:49.633Z,50.874981
2022-08-23T01:28:49.590Z,50.874981
2022-08-23T01:29:49.596Z,50.874981
2022-08-23T01:30:49.554Z,50.874981
2022-08-23T01:31:49.580Z,50.874981
2022-08-23T01:32:49.573Z,50.874981
2022-08-23T01:33:49.541Z,50.874546
2022-08-23T01:34:51.656Z,50.874798
2022-08-23T01:35:49.502Z,50.882126
2022-08-23T01:36:49.531Z,50.880848
2022-08-23T01:37:49.507Z,50.884090
2022-08-23T01:38:49.475Z,50.884090
2022-08-23T01:39:49.525Z,50.884090
2022-08-23T01:40:49.464Z,50.884090
2022-08-23T01:41:49.454Z,50.884090
2022-08-23T01:42:49.487Z,50.884090
2022-08-23T01:43:49.459Z,50.884090
2022-08-23T01:44:49.446Z,50.884090
2022-08-23T01:45:49.417Z,50.884090
2022-08-23T01:46:49.395Z,50.808849
2022-08-23T01:47:50.425Z,50.808849
2022-08-23T01:48:49.389Z,50.808849
2022-08-23T01:49:49.389Z,50.808849
2022-08-23T01:50:49.373Z,50.808849
2022-08-23T01:51:49.369Z,50.808849
2022-08-23T01:52:49.362Z,50.808849
2022-08-23T01:53:49.333Z,50.808849
2022-08-23T01:54:49.345Z,50.808849
2022-08-23T01:55:49.345Z,50.808849
2022-08-23T01:56:49.301Z,50.808849
2022-08-23T01:57:49.684Z,50.808849
2022-08-23T01:58:49.299Z,50.808849
2022-08-23T01:59:49.283Z,50.876217
2022-08-23T02:00:49.282Z,50.875488
2022-08-23T02:01:49.338Z,50.875648
2022-08-23T02:02:49.286Z,50.875561
2022-08-23T02:03:53.679Z,50.875439
2022-08-23T02:04:50.245Z,50.875423
2022-08-23T02:05:49.239Z,50.875423
2022-08-23T02:06:49.224Z,50.875423
2022-08-23T02:07:49.236Z,50.875160
2022-08-23T02:08:49.222Z,50.875229
2022-08-23T02:09:49.166Z,50.875206
2022-08-23T02:10:49.197Z,50.875206
2022-08-23T02:11:49.156Z,50.875206
2022-08-23T02:12:49.149Z,50.875206
2022-08-23T02:13:49.166Z,50.875332
2022-08-23T02:14:49.130Z,50.875412
2022-08-23T02:15:49.126Z,50.875500
2022-08-23T02:17:02.683Z,50.875484
2022-08-23T02:17:50.118Z,50.875416
2022-08-23T02:18:49.137Z,50.875370
2022-08-23T02:19:49.081Z,50.875378
2022-08-23T02:20:49.079Z,50.875458
2022-08-23T02:21:49.054Z,50.875488
2022-08-23T02:22:49.064Z,50.875523
2022-08-23T02:23:49.081Z,50.874939
2022-08-23T02:24:49.034Z,50.875534
2022-08-23T02:25:49.021Z,50.875702
2022-08-23T02:26:49.049Z,50.875786
2022-08-23T02:27:50.010Z,50.875687
2022-08-23T02:28:49.009Z,50.875156
2022-08-23T02:29:48.985Z,50.875408
2022-08-23T02:30:48.990Z,50.875206
2022-08-23T02:31:48.984Z,50.875427
2022-08-23T02:32:48.963Z,50.875141
2022-08-23T02:34:35.850Z,50.875759
2022-08-23T02:34:51.172Z,50.875454
2022-08-23T02:35:49.965Z,50.875046
2022-08-23T02:36:48.984Z,50.875595
2022-08-23T02:37:48.987Z,50.874908
2022-08-23T02:38:48.945Z,50.874073
2022-08-23T02:39:48.952Z,50.875248
2022-08-23T02:40:53.015Z,50.875259
2022-08-23T02:41:49.929Z,50.875229
2022-08-23T02:42:48.906Z,50.875641
2022-08-23T02:43:48.919Z,50.875294
2022-08-23T02:44:48.926Z,50.875217
2022-08-23T02:45:48.894Z,50.875378
2022-08-23T02:46:48.881Z,50.875202
2022-08-23T02:47:48.896Z,50.875362
2022-08-23T02:48:48.886Z,50.875252
2022-08-23T02:49:48.863Z,50.875324
2022-08-23T02:50:48.848Z,50.875370
2022-08-23T02:51:48.846Z,50.875210
2022-08-23T02:52:48.822Z,50.875317
2022-08-23T02:53:48.823Z,50.875252
2022-08-23T02:54:48.793Z,50.875103
2022-08-23T02:55:48.776Z,50.875114
2022-08-23T02:56:48.753Z,50.875202
2022-08-23T02:57:48.790Z,50.875217
2022-08-23T02:58:54.060Z,50.875294
2022-08-23T02:59:49.733Z,50.875366
2022-08-23T03:00:48.743Z,50.875801
2022-08-23T03:01:48.712Z,50.875381
2022-08-23T03:02:48.714Z,50.875404
2022-08-23T03:03:48.702Z,50.875381
2022-08-23T03:04:48.698Z,50.875343
2022-08-23T03:05:48.661Z,50.875317
2022-08-23T03:06:48.663Z,50.875244
2022-08-23T03:07:48.648Z,50.875340
2022-08-23T03:08:48.664Z,50.874901
2022-08-23T03:09:48.621Z,50.875450
2022-08-23T03:10:48.633Z,50.875340
2022-08-23T03:11:48.629Z,50.875427
2022-08-23T03:12:48.595Z,50.875320
2022-08-23T03:13:48.618Z,50.875484
2022-08-23T03:14:48.570Z,50.875484
2022-08-23T03:15:48.556Z,50.875423
2022-08-23T03:16:48.591Z,50.875256
2022-08-23T03:17:48.574Z,50.875397
2022-08-23T03:18:48.576Z,50.875404
2022-08-23T03:19:48.566Z,50.875481
2022-08-23T03:20:48.514Z,50.875496
2022-08-23T03:21:48.498Z,50.875309
2022-08-23T03:22:54.465Z,50.875450
2022-08-23T03:23:49.498Z,50.875282
2022-08-23T03:25:22.404Z,50.875237
2022-08-23T03:26:22.423Z,50.875206
2022-08-23T03:26:48.432Z,50.875401
2022-08-23T03:28:22.456Z,50.875385
2022-08-23T03:29:22.020Z,50.875393
2022-08-23T03:30:22.531Z,50.875366
2022-08-23T03:31:22.547Z,50.875404
2022-08-23T03:32:22.593Z,50.875404
2022-08-23T08:47:06.364Z,50.875320
2022-08-23T08:48:05.406Z,50.875526
2022-08-23T08:49:05.378Z,50.875507
2022-08-23T08:50:05.353Z,50.875568
2022-08-23T08:51:05.336Z,50.875515
2022-08-23T08:52:05.362Z,50.875515
2022-08-23T08:53:05.309Z,50.875515
2022-08-23T08:54:05.274Z,50.875515
2022-08-23T08:55:05.296Z,50.875515
2022-08-23T08:56:05.274Z,50.875515
2022-08-23T08:57:05.307Z,50.875515
2022-08-23T08:58:05.325Z,50.875515
2022-08-23T08:59:05.271Z,50.875515
2022-08-23T09:00:05.227Z,50.875515
2022-08-23T09:01:05.343Z,50.875515
2022-08-23T09:02:05.395Z,50.875515
2022-08-23T09:03:06.295Z,50.875515
2022-08-23T09:04:05.315Z,50.875515
2022-08-23T09:05:05.211Z,50.875515
2022-08-23T09:06:05.250Z,50.875515
2022-08-23T09:07:05.207Z,50.875515
2022-08-23T09:08:05.232Z,50.875515
2022-08-23T09:09:05.178Z,50.875515
2022-08-23T09:10:05.235Z,50.875515
2022-08-23T09:11:06.543Z,50.875515
2022-08-23T09:12:05.204Z,50.875515
2022-08-23T09:13:05.124Z,50.875515
2022-08-23T09:14:05.123Z,50.875519
2022-08-23T09:15:05.362Z,50.875355
2022-08-23T09:16:05.153Z,50.875359
2022-08-23T09:17:05.586Z,50.875404
2022-08-23T09:18:06.070Z,50.875378
2022-08-23T09:19:05.124Z,50.875450
2022-08-23T09:20:05.019Z,50.875359
2022-08-23T09:21:05.016Z,50.875240
2022-08-23T09:22:05.005Z,50.875282
2022-08-23T09:23:05.053Z,50.875328
2022-08-23T09:24:04.986Z,50.875298
2022-08-23T09:25:05.089Z,50.875423
2022-08-23T09:26:06.043Z,50.875450
2022-08-23T09:27:05.094Z,50.875454
2022-08-23T09:28:04.984Z,50.875389
2022-08-23T09:29:04.932Z,50.875336
2022-08-23T09:30:05.008Z,50.875378
2022-08-23T09:31:05.197Z,50.875359
2022-08-23T09:32:08.212Z,50.875340
2022-08-23T09:33:05.968Z,50.875256
2022-08-23T09:34:04.955Z,50.875286
2022-08-23T09:35:06.243Z,50.875351
2022-08-23T09:36:04.960Z,50.875378
2022-08-23T09:37:04.925Z,50.875385
2022-08-23T09:38:04.930Z,50.875423
2022-08-23T09:39:04.887Z,50.875435
2022-08-23T09:40:04.931Z,50.875374
2022-08-23T09:41:05.026Z,50.875378
2022-08-23T09:42:04.985Z,50.875374
2022-08-23T09:43:04.819Z,50.875362
2022-08-23T09:44:04.812Z,50.875233
2022-08-23T09:45:04.840Z,50.875206
2022-08-23T09:46:04.842Z,50.875130
2022-08-23T09:47:07.359Z,50.875366
2022-08-23T09:48:04.792Z,50.875458
2022-08-23T09:49:05.295Z,50.875381
2022-08-23T09:50:04.756Z,50.875534
2022-08-23T09:51:04.758Z,50.875469
2022-08-23T09:52:04.779Z,50.875393
2022-08-23T09:53:10.691Z,50.875378
2022-08-23T09:54:06.190Z,50.875313
2022-08-23T09:55:04.721Z,50.875328
2022-08-23T09:56:07.683Z,50.875568
2022-08-23T09:57:16.544Z,50.875397
2022-08-23T09:58:04.760Z,50.875069
2022-08-23T09:59:05.817Z,50.875057
2022-08-23T10:00:42.314Z,50.875355
2022-08-23T10:01:10.278Z,50.875206
2022-08-23T10:02:05.658Z,50.875423
2022-08-23T10:03:04.618Z,50.875423
2022-08-23T10:04:04.654Z,50.875198
2022-08-23T10:05:04.668Z,50.875317
2022-08-23T10:06:04.660Z,50.875362
2022-08-23T10:07:04.546Z,50.875286
2022-08-23T10:08:07.632Z,50.875336
2022-08-23T10:09:05.545Z,50.875427
2022-08-23T10:10:04.568Z,50.875290
2022-08-23T10:11:04.674Z,50.875629
2022-08-23T10:12:04.549Z,50.875546
2022-08-23T10:13:04.663Z,50.875439
2022-08-23T10:14:04.493Z,50.875275
2022-08-23T10:15:04.750Z,50.875244
2022-08-23T10:16:04.573Z,50.875401
2022-08-23T10:17:04.470Z,50.875523
2022-08-23T10:18:04.476Z,50.875565
2022-08-23T10:19:04.444Z,50.875488
2022-08-23T10:20:04.432Z,50.875416
2022-08-23T10:21:04.457Z,50.875603
2022-08-23T10:22:04.399Z,50.875366
2022-08-23T10:23:04.461Z,50.875355
2022-08-23T10:24:04.406Z,50.875511
2022-08-23T10:25:05.805Z,50.875469
2022-08-23T10:26:04.465Z,50.875294
2022-08-23T10:27:04.423Z,50.875248
2022-08-23T10:28:04.473Z,50.875248
2022-08-23T10:29:04.402Z,50.874306
2022-08-23T10:30:04.377Z,50.874306
2022-08-23T10:31:04.409Z,50.874306
2022-08-23T10:32:04.349Z,50.874306
2022-08-23T10:33:04.365Z,50.874306
2022-08-23T10:34:04.305Z,50.874306
2022-08-23T10:35:04.307Z,50.874306
2022-08-23T10:36:04.309Z,50.874306
2022-08-23T10:37:04.247Z,50.874306
2022-08-23T10:38:05.373Z,50.874306
2022-08-23T10:39:04.275Z,50.874306
2022-08-23T10:40:04.584Z,50.874306
2022-08-23T10:41:04.246Z,50.874306
2022-08-23T10:42:04.221Z,50.874306
2022-08-23T10:43:04.241Z,50.874306
2022-08-23T10:44:04.219Z,50.874306
2022-08-23T10:45:04.206Z,50.874306
2022-08-23T10:46:04.226Z,50.874306
2022-08-23T10:47:04.347Z,50.874306
2022-08-23T10:48:04.527Z,50.874306
2022-08-23T10:49:04.211Z,50.874306
2022-08-23T10:50:04.186Z,50.874306
2022-08-23T10:51:04.182Z,50.874306
2022-08-23T10:52:04.223Z,50.874306
2022-08-23T10:53:04.334Z,50.874306
2022-08-23T10:54:04.165Z,50.874306
2022-08-23T10:55:04.174Z,50.874306
2022-08-23T10:56:05.085Z,50.874306
2022-08-23T10:57:25.856Z,50.874306
2022-08-23T10:58:05.164Z,50.874306
2022-08-23T10:59:04.144Z,50.874306
2022-08-23T11:00:04.132Z,50.874306
2022-08-23T11:01:04.151Z,50.874306
2022-08-23T11:02:04.136Z,50.874306
2022-08-23T11:03:04.126Z,50.875370
2022-08-23T11:04:04.072Z,50.875488
2022-08-23T11:05:05.237Z,50.875462
2022-08-23T11:06:05.740Z,50.875607
2022-08-23T11:07:04.033Z,50.875484
2022-08-23T11:08:04.188Z,50.875435
2022-08-23T11:09:04.039Z,50.875408
2022-08-23T11:10:04.015Z,50.875446
2022-08-23T11:11:03.990Z,50.875435
2022-08-23T11:12:05.636Z,50.875439
2022-08-23T11:13:04.949Z,50.875439
2022-08-23T11:14:04.324Z,50.875435
2022-08-23T11:15:09.806Z,50.875431
2022-08-23T11:16:04.951Z,50.875423
2022-08-23T11:17:03.937Z,50.875465
2022-08-23T11:18:04.084Z,50.875412
2022-08-23T11:19:03.944Z,50.875366
2022-08-23T11:20:03.876Z,50.875374
2022-08-23T11:21:03.852Z,50.875374
2022-08-23T11:22:03.904Z,50.875336
2022-08-23T11:23:03.917Z,50.875324
2022-08-23T11:24:03.892Z,50.875431
2022-08-23T11:25:03.852Z,50.875343
2022-08-23T11:26:03.832Z,50.875229
2022-08-23T11:27:06.260Z,50.875374
2022-08-23T11:28:04.893Z,50.875389
2022-08-23T11:29:03.855Z,50.875389
2022-08-23T11:30:03.787Z,50.875389
2022-08-23T11:31:03.860Z,50.875389
2022-08-23T11:32:03.862Z,50.875584
2022-08-23T11:33:03.811Z,50.875401
2022-08-23T11:34:03.781Z,50.875355
2022-08-23T11:35:03.806Z,50.875408
2022-08-23T11:36:03.763Z,50.875404
2022-08-23T11:37:03.761Z,50.874989
2022-08-23T11:38:04.229Z,50.873562
2022-08-23T11:39:03.780Z,50.872089
2022-08-23T11:40:03.852Z,50.870697
2022-08-23T11:41:03.776Z,50.870049
2022-08-23T11:42:03.737Z,50.869347
2022-08-23T11:43:03.698Z,50.868946
2022-08-23T11:44:03.749Z,50.868595
2022-08-23T11:45:03.715Z,50.868446
2022-08-23T11:46:03.784Z,50.864338
2022-08-23T11:47:04.651Z,50.861427
2022-08-23T11:48:03.678Z,50.858784
2022-08-23T11:49:03.676Z,50.857834
2022-08-23T11:50:03.673Z,50.875393
2022-08-23T11:51:03.687Z,50.875023
2022-08-23T11:52:04.403Z,50.875286
2022-08-23T11:53:03.664Z,50.875454
2022-08-23T11:54:03.709Z,50.875370
2022-08-23T11:55:03.574Z,50.875393
2022-08-23T11:56:03.626Z,50.875381
2022-08-23T11:57:03.570Z,50.875404
2022-08-23T11:58:03.792Z,50.875275
2022-08-23T11:59:08.588Z,50.875214
2022-08-23T12:00:09.330Z,50.875126
2022-08-23T12:01:03.502Z,50.875957
2022-08-23T12:02:03.579Z,50.878136
2022-08-23T12:03:09.040Z,50.880245
2022-08-23T12:04:11.848Z,50.879913
2022-08-23T12:05:06.856Z,50.879913
2022-08-23T12:06:40.497Z,50.879913
2022-08-23T12:07:11.572Z,50.879913
2022-08-23T12:08:05.816Z,50.879913
2022-08-23T12:09:36.292Z,50.879913
2022-08-23T12:10:33.253Z,50.875641
2022-08-23T12:11:06.987Z,50.875397
2022-08-23T12:12:36.176Z,50.875381
2022-08-23T12:13:06.255Z,50.875496
2022-08-23T12:14:03.514Z,50.875397
2022-08-23T12:15:03.446Z,50.875454
2022-08-23T12:16:03.508Z,50.875336
2022-08-23T12:17:04.221Z,50.875221
2022-08-23T12:18:03.747Z,50.875221
2022-08-23T12:19:03.383Z,50.875221
2022-08-23T12:20:03.507Z,50.874485
2022-08-23T12:21:03.409Z,50.874805
2022-08-23T12:22:34.272Z,50.875011
2022-08-23T12:23:32.478Z,50.874905
2022-08-23T12:24:04.328Z,50.875462
2022-08-23T12:25:03.369Z,50.875031
2022-08-23T12:27:36.712Z,50.875225
2022-08-23T12:27:48.354Z,50.875225
2022-08-23T12:28:39.278Z,50.875095
2022-08-23T12:29:38.277Z,50.875244
2022-08-23T12:30:42.435Z,50.875778
2022-08-23T12:33:19.850Z,50.875664
2022-08-23T12:33:27.000Z,50.875664
